createdAt,value
2022-09-30T00:00:05.798Z,1007.59
2022-09-30T00:00:36.394Z,1007.59
2022-09-30T00:01:06.959Z,1007.60
2022-09-30T00:01:37.630Z,1007.60
2022-09-30T00:02:08.288Z,1007.61
2022-09-30T00:02:38.934Z,1007.61
2022-09-30T00:03:09.576Z,1007.61
2022-09-30T00:03:40.122Z,1007.61
2022-09-30T00:04:10.701Z,1007.61
2022-09-30T00:04:41.263Z,1007.61
2022-09-30T00:05:11.815Z,1007.61
2022-09-30T00:05:42.398Z,1007.61
2022-09-30T00:06:12.997Z,1007.61
2022-09-30T00:06:43.579Z,1007.61
2022-09-30T00:07:14.139Z,1007.61
2022-09-30T00:07:44.711Z,1007.60
2022-09-30T00:08:15.288Z,1007.61
2022-09-30T00:08:45.862Z,1007.62
2022-09-30T00:09:16.667Z,1007.62
2022-09-30T00:09:47.293Z,1007.63
2022-09-30T00:10:17.854Z,1007.64
2022-09-30T00:10:48.411Z,1007.65
2022-09-30T00:11:18.993Z,1007.65
2022-09-30T00:11:49.543Z,1007.67
2022-09-30T00:12:20.133Z,1007.68
2022-09-30T00:12:50.711Z,1007.69
2022-09-30T00:13:21.269Z,1007.70
2022-09-30T00:13:51.852Z,1007.72
2022-09-30T00:14:22.444Z,1007.73
2022-09-30T00:14:53.010Z,1007.74
2022-09-30T00:15:23.566Z,1007.75
2022-09-30T00:15:54.174Z,1007.77
2022-09-30T00:16:24.791Z,1007.78
2022-09-30T00:16:55.397Z,1007.79
2022-09-30T00:17:25.965Z,1007.80
2022-09-30T00:17:56.526Z,1007.80
2022-09-30T00:18:27.101Z,1007.81
2022-09-30T00:18:57.639Z,1007.82
2022-09-30T00:19:28.252Z,1007.82
2022-09-30T00:19:58.895Z,1007.83
2022-09-30T00:20:29.441Z,1007.84
2022-09-30T00:21:00.035Z,1007.84
2022-09-30T00:21:30.626Z,1007.84
2022-09-30T00:22:01.211Z,1007.85
2022-09-30T00:22:31.778Z,1007.85
2022-09-30T00:23:02.342Z,1007.86
2022-09-30T00:23:32.921Z,1007.86
2022-09-30T00:24:03.493Z,1007.87
2022-09-30T00:24:34.106Z,1007.88
2022-09-30T00:25:04.657Z,1007.88
2022-09-30T00:25:35.236Z,1007.89
2022-09-30T00:26:05.818Z,1007.90
2022-09-30T00:26:36.409Z,1007.91
2022-09-30T00:27:06.954Z,1007.91
2022-09-30T00:27:37.547Z,1007.92
2022-09-30T00:28:08.086Z,1007.92
2022-09-30T00:28:38.678Z,1007.93
2022-09-30T00:29:09.257Z,1007.93
2022-09-30T00:29:39.809Z,1007.94
2022-09-30T00:30:10.400Z,1007.94
2022-09-30T00:30:40.995Z,1007.94
2022-09-30T00:31:11.657Z,1007.94
2022-09-30T00:31:42.286Z,1007.93
2022-09-30T00:32:12.854Z,1007.93
2022-09-30T00:32:43.425Z,1007.93
2022-09-30T00:33:13.995Z,1007.92
2022-09-30T00:33:44.574Z,1007.92
2022-09-30T00:34:15.128Z,1007.92
2022-09-30T00:34:45.690Z,1007.92
2022-09-30T00:35:20.550Z,1007.93
2022-09-30T00:35:47.047Z,1007.93
2022-09-30T00:36:17.624Z,1007.94
2022-09-30T00:36:48.197Z,1007.95
2022-09-30T00:37:18.790Z,1007.95
2022-09-30T00:37:49.396Z,1007.96
2022-09-30T00:38:19.961Z,1007.97
2022-09-30T00:38:50.532Z,1007.97
2022-09-30T00:39:21.235Z,1007.98
2022-09-30T00:39:51.936Z,1007.99
2022-09-30T00:40:22.467Z,1008.00
2022-09-30T00:40:53.034Z,1008.01
2022-09-30T00:41:23.601Z,1008.01
2022-09-30T00:41:54.218Z,1008.02
2022-09-30T00:42:24.763Z,1008.02
2022-09-30T00:42:55.324Z,1008.03
2022-09-30T00:43:25.887Z,1008.04
2022-09-30T00:43:56.477Z,1008.05
2022-09-30T00:44:27.051Z,1008.06
2022-09-30T00:44:57.639Z,1008.07
2022-09-30T00:45:28.178Z,1008.08
2022-09-30T00:45:58.776Z,1008.10
2022-09-30T00:46:29.389Z,1008.10
2022-09-30T00:47:00.031Z,1008.11
2022-09-30T00:47:30.661Z,1008.11
2022-09-30T00:48:01.231Z,1008.11
2022-09-30T00:48:31.806Z,1008.11
2022-09-30T00:49:02.390Z,1008.11
2022-09-30T00:49:32.960Z,1008.10
2022-09-30T00:50:03.562Z,1008.09
2022-09-30T00:50:34.124Z,1008.09
2022-09-30T00:51:04.707Z,1008.08
2022-09-30T00:51:35.258Z,1008.08
2022-09-30T00:52:05.826Z,1008.07
2022-09-30T00:52:36.373Z,1008.07
2022-09-30T00:53:06.932Z,1008.07
2022-09-30T00:53:37.511Z,1008.07
2022-09-30T00:54:08.106Z,1008.07
2022-09-30T00:54:38.637Z,1008.07
2022-09-30T00:55:09.256Z,1008.07
2022-09-30T00:55:39.851Z,1008.07
2022-09-30T00:56:10.398Z,1008.07
2022-09-30T00:56:40.962Z,1008.07
2022-09-30T00:57:11.559Z,1008.08
2022-09-30T00:57:42.101Z,1008.08
2022-09-30T00:58:12.744Z,1008.08
2022-09-30T00:58:43.338Z,1008.08
2022-09-30T00:59:14.084Z,1008.09
2022-09-30T00:59:44.640Z,1008.10
2022-09-30T01:00:15.195Z,1008.11
2022-09-30T01:00:45.812Z,1008.12
2022-09-30T01:01:16.440Z,1008.13
2022-09-30T01:01:47.065Z,1008.14
2022-09-30T01:02:17.702Z,1008.15
2022-09-30T01:02:48.251Z,1008.16
2022-09-30T01:03:18.815Z,1008.17
2022-09-30T01:03:49.378Z,1008.17
2022-09-30T01:04:19.970Z,1008.18
2022-09-30T01:04:50.541Z,1008.18
2022-09-30T01:05:21.115Z,1008.18
2022-09-30T01:05:51.761Z,1008.19
2022-09-30T01:06:22.288Z,1008.18
2022-09-30T01:06:52.864Z,1008.19
2022-09-30T01:07:23.436Z,1008.18
2022-09-30T01:07:54.010Z,1008.18
2022-09-30T01:08:24.601Z,1008.18
2022-09-30T01:08:55.145Z,1008.17
2022-09-30T01:09:25.852Z,1008.17
2022-09-30T01:09:56.466Z,1008.16
2022-09-30T01:10:27.027Z,1008.16
2022-09-30T01:10:57.588Z,1008.16
2022-09-30T01:11:28.115Z,1008.15
2022-09-30T01:11:58.680Z,1008.14
2022-09-30T01:12:29.295Z,1008.14
2022-09-30T01:12:59.845Z,1008.14
2022-09-30T01:13:30.407Z,1008.14
2022-09-30T01:14:00.980Z,1008.13
2022-09-30T01:14:31.557Z,1008.14
2022-09-30T01:15:02.103Z,1008.13
2022-09-30T01:15:32.683Z,1008.14
2022-09-30T01:16:03.363Z,1008.14
2022-09-30T01:16:34.036Z,1008.14
2022-09-30T01:17:04.593Z,1008.14
2022-09-30T01:17:35.167Z,1008.14
2022-09-30T01:18:05.757Z,1008.15
2022-09-30T01:18:36.331Z,1008.15
2022-09-30T01:19:06.906Z,1008.15
2022-09-30T01:19:37.460Z,1008.15
2022-09-30T01:20:08.175Z,1008.15
2022-09-30T01:20:38.718Z,1008.15
2022-09-30T01:21:09.283Z,1008.15
2022-09-30T01:21:39.867Z,1008.15
2022-09-30T01:22:10.427Z,1008.16
2022-09-30T01:22:42.312Z,1008.15
2022-09-30T01:23:12.022Z,1008.15
2022-09-30T01:23:42.551Z,1008.15
2022-09-30T01:24:13.134Z,1008.15
2022-09-30T01:24:43.706Z,1008.14
2022-09-30T01:25:14.307Z,1008.14
2022-09-30T01:25:44.863Z,1008.13
2022-09-30T01:26:15.447Z,1008.13
2022-09-30T01:26:46.015Z,1008.13
2022-09-30T01:27:16.583Z,1008.13
2022-09-30T01:27:47.166Z,1008.12
2022-09-30T01:28:17.721Z,1008.12
2022-09-30T01:28:48.302Z,1008.13
2022-09-30T01:29:18.945Z,1008.13
2022-09-30T01:29:49.542Z,1008.14
2022-09-30T01:30:20.125Z,1008.14
2022-09-30T01:30:50.688Z,1008.15
2022-09-30T01:31:21.359Z,1008.16
2022-09-30T01:31:51.998Z,1008.17
2022-09-30T01:32:22.611Z,1008.18
2022-09-30T01:32:53.212Z,1008.19
2022-09-30T01:33:23.787Z,1008.21
2022-09-30T01:33:54.351Z,1008.22
2022-09-30T01:34:24.908Z,1008.23
2022-09-30T01:34:55.502Z,1008.25
2022-09-30T01:35:26.070Z,1008.26
2022-09-30T01:35:56.643Z,1008.27
2022-09-30T01:36:27.231Z,1008.28
2022-09-30T01:36:57.834Z,1008.29
2022-09-30T01:37:28.397Z,1008.30
2022-09-30T01:37:58.959Z,1008.31
2022-09-30T01:38:29.525Z,1008.31
2022-09-30T01:39:00.104Z,1008.32
2022-09-30T01:39:30.667Z,1008.33
2022-09-30T01:40:01.211Z,1008.34
2022-09-30T01:40:31.780Z,1008.34
2022-09-30T01:41:02.347Z,1008.35
2022-09-30T01:41:32.918Z,1008.36
2022-09-30T01:42:03.480Z,1008.36
2022-09-30T01:42:34.042Z,1008.37
2022-09-30T01:43:04.623Z,1008.37
2022-09-30T01:43:35.158Z,1008.37
2022-09-30T01:44:05.730Z,1008.37
2022-09-30T01:44:36.308Z,1008.37
2022-09-30T01:45:06.864Z,1008.36
2022-09-30T01:45:37.421Z,1008.37
2022-09-30T01:46:07.998Z,1008.37
2022-09-30T01:46:38.662Z,1008.38
2022-09-30T01:47:09.245Z,1008.38
2022-09-30T01:47:39.834Z,1008.38
2022-09-30T01:48:10.393Z,1008.39
2022-09-30T01:48:40.954Z,1008.39
2022-09-30T01:49:11.530Z,1008.40
2022-09-30T01:49:42.112Z,1008.40
2022-09-30T01:50:12.690Z,1008.40
2022-09-30T01:50:43.307Z,1008.40
2022-09-30T01:51:13.886Z,1008.41
2022-09-30T01:51:44.465Z,1008.43
2022-09-30T01:52:15.018Z,1008.43
2022-09-30T01:52:45.617Z,1008.45
2022-09-30T01:53:16.202Z,1008.46
2022-09-30T01:53:46.742Z,1008.47
2022-09-30T01:54:17.322Z,1008.48
2022-09-30T01:54:47.896Z,1008.49
2022-09-30T01:55:18.435Z,1008.50
2022-09-30T01:55:48.979Z,1008.51
2022-09-30T01:56:19.556Z,1008.51
2022-09-30T01:56:50.119Z,1008.52
2022-09-30T01:57:20.685Z,1008.52
2022-09-30T01:57:51.259Z,1008.53
2022-09-30T01:58:21.839Z,1008.53
2022-09-30T01:58:52.392Z,1008.53
2022-09-30T01:59:23.158Z,1008.53
2022-09-30T01:59:53.877Z,1008.54
2022-09-30T02:00:24.633Z,1008.54
2022-09-30T02:00:55.260Z,1008.54
2022-09-30T02:01:25.835Z,1008.55
2022-09-30T02:01:56.491Z,1008.55
2022-09-30T02:02:27.147Z,1008.55
2022-09-30T02:02:57.701Z,1008.55
2022-09-30T02:03:28.291Z,1008.56
2022-09-30T02:03:58.895Z,1008.55
2022-09-30T02:04:29.456Z,1008.55
2022-09-30T02:05:00.035Z,1008.55
2022-09-30T02:05:30.608Z,1008.55
2022-09-30T02:06:01.157Z,1008.55
2022-09-30T02:06:31.733Z,1008.55
2022-09-30T02:07:02.304Z,1008.54
2022-09-30T02:07:32.870Z,1008.54
2022-09-30T02:08:03.413Z,1008.54
2022-09-30T02:08:34.013Z,1008.53
2022-09-30T02:09:04.657Z,1008.54
2022-09-30T02:09:35.267Z,1008.54
2022-09-30T02:10:05.867Z,1008.54
2022-09-30T02:10:36.443Z,1008.55
2022-09-30T02:11:07.007Z,1008.55
2022-09-30T02:11:37.585Z,1008.56
2022-09-30T02:12:08.149Z,1008.56
2022-09-30T02:12:38.736Z,1008.57
2022-09-30T02:13:09.311Z,1008.58
2022-09-30T02:13:39.916Z,1008.59
2022-09-30T02:14:10.482Z,1008.60
2022-09-30T02:14:41.053Z,1008.61
2022-09-30T02:15:11.622Z,1008.62
2022-09-30T02:15:42.189Z,1008.63
2022-09-30T02:16:13.162Z,1008.65
2022-09-30T02:16:43.278Z,1008.66
2022-09-30T02:17:13.871Z,1008.67
2022-09-30T02:17:44.478Z,1008.68
2022-09-30T02:18:15.025Z,1008.69
2022-09-30T02:18:45.602Z,1008.70
2022-09-30T02:19:16.156Z,1008.70
2022-09-30T02:19:46.723Z,1008.70
2022-09-30T02:20:17.316Z,1008.71
2022-09-30T02:20:47.897Z,1008.71
2022-09-30T02:21:18.478Z,1008.71
2022-09-30T02:21:49.044Z,1008.71
2022-09-30T02:22:19.617Z,1008.70
2022-09-30T02:22:50.193Z,1008.70
2022-09-30T02:23:20.762Z,1008.70
2022-09-30T02:23:51.329Z,1008.70
2022-09-30T02:24:21.904Z,1008.69
2022-09-30T02:24:52.472Z,1008.69
2022-09-30T02:25:23.045Z,1008.69
2022-09-30T02:25:53.639Z,1008.69
2022-09-30T02:26:24.219Z,1008.69
2022-09-30T02:26:54.754Z,1008.69
2022-09-30T02:27:25.335Z,1008.69
2022-09-30T02:27:55.874Z,1008.70
2022-09-30T02:28:26.462Z,1008.70
2022-09-30T02:28:57.067Z,1008.70
2022-09-30T02:29:27.641Z,1008.71
2022-09-30T02:29:58.221Z,1008.71
2022-09-30T02:30:28.815Z,1008.71
2022-09-30T02:30:59.452Z,1008.71
2022-09-30T02:31:30.114Z,1008.70
2022-09-30T02:32:00.697Z,1008.70
2022-09-30T02:32:31.232Z,1008.69
2022-09-30T02:33:01.827Z,1008.68
2022-09-30T02:33:32.386Z,1008.67
2022-09-30T02:34:02.959Z,1008.66
2022-09-30T02:34:33.519Z,1008.65
2022-09-30T02:35:04.123Z,1008.64
2022-09-30T02:35:34.695Z,1008.63
2022-09-30T02:36:05.270Z,1008.62
2022-09-30T02:36:35.879Z,1008.61
2022-09-30T02:37:06.446Z,1008.59
2022-09-30T02:37:36.997Z,1008.58
2022-09-30T02:38:07.556Z,1008.57
2022-09-30T02:38:38.145Z,1008.56
2022-09-30T02:39:08.708Z,1008.55
2022-09-30T02:39:39.276Z,1008.54
2022-09-30T02:40:09.859Z,1008.54
2022-09-30T02:40:40.438Z,1008.53
2022-09-30T02:41:10.993Z,1008.53
2022-09-30T02:41:41.582Z,1008.52
2022-09-30T02:42:12.149Z,1008.52
2022-09-30T02:42:42.723Z,1008.52
2022-09-30T02:43:13.309Z,1008.52
2022-09-30T02:43:43.912Z,1008.52
2022-09-30T02:44:14.555Z,1008.52
2022-09-30T02:44:45.077Z,1008.51
2022-09-30T02:45:15.645Z,1008.52
2022-09-30T02:45:46.212Z,1008.51
2022-09-30T02:46:16.825Z,1008.51
2022-09-30T02:46:47.589Z,1008.50
2022-09-30T02:47:18.165Z,1008.50
2022-09-30T02:47:48.744Z,1008.49
2022-09-30T02:48:19.319Z,1008.49
2022-09-30T02:48:49.883Z,1008.49
2022-09-30T02:49:20.523Z,1008.49
2022-09-30T02:49:51.119Z,1008.49
2022-09-30T02:50:21.692Z,1008.50
2022-09-30T02:50:52.263Z,1008.50
2022-09-30T02:51:22.844Z,1008.51
2022-09-30T02:51:53.421Z,1008.52
2022-09-30T02:52:24.003Z,1008.53
2022-09-30T02:52:54.580Z,1008.54
2022-09-30T02:53:25.150Z,1008.55
2022-09-30T02:53:55.690Z,1008.56
2022-09-30T02:54:26.281Z,1008.57
2022-09-30T02:54:56.836Z,1008.58
2022-09-30T02:55:27.427Z,1008.59
2022-09-30T02:55:57.991Z,1008.60
2022-09-30T02:56:28.542Z,1008.61
2022-09-30T02:56:59.117Z,1008.63
2022-09-30T02:57:29.700Z,1008.63
2022-09-30T02:58:00.267Z,1008.64
2022-09-30T02:58:30.834Z,1008.65
2022-09-30T02:59:01.402Z,1008.66
2022-09-30T02:59:31.996Z,1008.67
2022-09-30T03:00:03.563Z,1008.68
2022-09-30T03:00:33.204Z,1008.69
2022-09-30T03:01:03.810Z,1008.70
2022-09-30T03:01:34.443Z,1008.72
2022-09-30T03:02:05.044Z,1008.73
2022-09-30T03:02:35.603Z,1008.75
2022-09-30T03:03:06.165Z,1008.77
2022-09-30T03:03:36.745Z,1008.78
2022-09-30T03:04:07.326Z,1008.80
2022-09-30T03:04:37.894Z,1008.81
2022-09-30T03:05:08.454Z,1008.83
2022-09-30T03:05:39.039Z,1008.84
2022-09-30T03:06:09.617Z,1008.86
2022-09-30T03:06:40.179Z,1008.87
2022-09-30T03:07:10.748Z,1008.88
2022-09-30T03:07:41.326Z,1008.90
2022-09-30T03:08:11.899Z,1008.91
2022-09-30T03:08:42.460Z,1008.93
2022-09-30T03:09:13.104Z,1008.94
2022-09-30T03:09:43.788Z,1008.95
2022-09-30T03:10:14.392Z,1008.96
2022-09-30T03:10:44.970Z,1008.97
2022-09-30T03:11:15.527Z,1008.99
2022-09-30T03:11:46.102Z,1008.99
2022-09-30T03:12:16.680Z,1009.00
2022-09-30T03:12:47.281Z,1009.01
2022-09-30T03:13:17.855Z,1009.02
2022-09-30T03:13:48.445Z,1009.02
2022-09-30T03:14:19.033Z,1009.03
2022-09-30T03:14:49.645Z,1009.03
2022-09-30T03:15:20.182Z,1009.03
2022-09-30T03:15:50.809Z,1009.03
2022-09-30T03:16:21.427Z,1009.03
2022-09-30T03:16:51.996Z,1009.03
2022-09-30T03:17:22.580Z,1009.03
2022-09-30T03:17:53.131Z,1009.03
2022-09-30T03:18:23.701Z,1009.02
2022-09-30T03:18:54.289Z,1009.02
2022-09-30T03:19:25.044Z,1009.02
2022-09-30T03:19:55.704Z,1009.01
2022-09-30T03:20:26.307Z,1009.01
2022-09-30T03:20:56.876Z,1009.01
2022-09-30T03:21:27.473Z,1009.01
2022-09-30T03:21:58.040Z,1009.01
2022-09-30T03:22:28.634Z,1009.02
2022-09-30T03:22:59.198Z,1009.01
2022-09-30T03:23:29.776Z,1009.02
2022-09-30T03:24:00.328Z,1009.02
2022-09-30T03:24:30.865Z,1009.02
2022-09-30T03:25:01.438Z,1009.02
2022-09-30T03:25:31.985Z,1009.02
2022-09-30T03:26:02.552Z,1009.02
2022-09-30T03:26:33.105Z,1009.03
2022-09-30T03:27:03.701Z,1009.03
2022-09-30T03:27:34.299Z,1009.03
2022-09-30T03:28:04.864Z,1009.04
2022-09-30T03:28:35.430Z,1009.04
2022-09-30T03:29:05.996Z,1009.05
2022-09-30T03:29:36.584Z,1009.05
2022-09-30T03:30:07.220Z,1009.05
2022-09-30T03:30:37.749Z,1009.06
2022-09-30T03:31:08.362Z,1009.07
2022-09-30T03:31:38.991Z,1009.07
2022-09-30T03:32:09.571Z,1009.08
2022-09-30T03:32:40.141Z,1009.09
2022-09-30T03:33:10.759Z,1009.10
2022-09-30T03:33:41.315Z,1009.11
2022-09-30T03:34:11.898Z,1009.12
2022-09-30T03:34:42.466Z,1009.13
2022-09-30T03:35:13.032Z,1009.15
2022-09-30T03:35:43.610Z,1009.16
2022-09-30T03:36:14.177Z,1009.17
2022-09-30T03:36:44.742Z,1009.17
2022-09-30T03:37:15.290Z,1009.19
2022-09-30T03:37:45.875Z,1009.20
2022-09-30T03:38:16.451Z,1009.21
2022-09-30T03:38:46.999Z,1009.21
2022-09-30T03:39:17.564Z,1009.22
2022-09-30T03:39:48.159Z,1009.22
2022-09-30T03:40:18.732Z,1009.23
2022-09-30T03:40:49.323Z,1009.23
2022-09-30T03:41:19.890Z,1009.23
2022-09-30T03:41:50.448Z,1009.24
2022-09-30T03:42:23.054Z,1009.24
2022-09-30T03:42:51.718Z,1009.23
2022-09-30T03:43:22.281Z,1009.23
2022-09-30T03:43:52.831Z,1009.23
2022-09-30T03:44:23.409Z,1009.22
2022-09-30T03:44:53.997Z,1009.21
2022-09-30T03:45:24.590Z,1009.20
2022-09-30T03:45:55.148Z,1009.20
2022-09-30T03:46:25.832Z,1009.19
2022-09-30T03:46:56.481Z,1009.19
2022-09-30T03:47:27.059Z,1009.19
2022-09-30T03:47:57.638Z,1009.19
2022-09-30T03:48:28.229Z,1009.19
2022-09-30T03:48:58.813Z,1009.19
2022-09-30T03:49:29.381Z,1009.19
2022-09-30T03:49:59.905Z,1009.18
2022-09-30T03:50:30.468Z,1009.18
2022-09-30T03:51:01.072Z,1009.18
2022-09-30T03:51:31.617Z,1009.18
2022-09-30T03:52:02.179Z,1009.17
2022-09-30T03:52:32.757Z,1009.17
2022-09-30T03:53:03.329Z,1009.17
2022-09-30T03:53:33.918Z,1009.16
2022-09-30T03:54:04.504Z,1009.16
2022-09-30T03:54:35.075Z,1009.16
2022-09-30T03:55:05.647Z,1009.16
2022-09-30T03:55:36.208Z,1009.16
2022-09-30T03:56:06.802Z,1009.16
2022-09-30T03:56:37.360Z,1009.15
2022-09-30T03:57:07.912Z,1009.15
2022-09-30T03:57:38.501Z,1009.15
2022-09-30T03:58:09.075Z,1009.15
2022-09-30T03:58:39.663Z,1009.16
2022-09-30T03:59:10.236Z,1009.16
2022-09-30T03:59:40.818Z,1009.17
2022-09-30T04:00:11.393Z,1009.18
2022-09-30T04:00:42.053Z,1009.19
2022-09-30T04:01:12.673Z,1009.20
2022-09-30T04:01:43.240Z,1009.20
2022-09-30T04:02:13.859Z,1009.21
2022-09-30T04:02:44.448Z,1009.21
2022-09-30T04:03:14.981Z,1009.22
2022-09-30T04:03:45.581Z,1009.22
2022-09-30T04:04:16.133Z,1009.23
2022-09-30T04:04:46.675Z,1009.23
2022-09-30T04:05:17.277Z,1009.23
2022-09-30T04:05:47.851Z,1009.23
2022-09-30T04:06:18.440Z,1009.24
2022-09-30T04:06:49.004Z,1009.24
2022-09-30T04:07:19.603Z,1009.24
2022-09-30T04:07:50.169Z,1009.24
2022-09-30T04:08:20.721Z,1009.24
2022-09-30T04:08:51.300Z,1009.24
2022-09-30T04:09:22.196Z,1009.24
2022-09-30T04:09:52.419Z,1009.23
2022-09-30T04:10:22.955Z,1009.23
2022-09-30T04:10:53.521Z,1009.22
2022-09-30T04:11:24.126Z,1009.22
2022-09-30T04:11:54.707Z,1009.22
2022-09-30T04:12:25.286Z,1009.22
2022-09-30T04:12:55.859Z,1009.22
2022-09-30T04:13:26.436Z,1009.22
2022-09-30T04:13:56.980Z,1009.22
2022-09-30T04:14:27.553Z,1009.22
2022-09-30T04:14:58.152Z,1009.22
2022-09-30T04:15:28.721Z,1009.23
2022-09-30T04:15:59.393Z,1009.23
2022-09-30T04:16:30.014Z,1009.24
2022-09-30T04:17:00.597Z,1009.24
2022-09-30T04:17:31.141Z,1009.24
2022-09-30T04:18:01.713Z,1009.25
2022-09-30T04:18:32.293Z,1009.25
2022-09-30T04:19:02.960Z,1009.26
2022-09-30T04:19:33.496Z,1009.26
2022-09-30T04:20:04.083Z,1009.27
2022-09-30T04:20:34.683Z,1009.28
2022-09-30T04:21:05.254Z,1009.29
2022-09-30T04:21:35.826Z,1009.29
2022-09-30T04:22:06.402Z,1009.31
2022-09-30T04:22:36.974Z,1009.32
2022-09-30T04:23:07.552Z,1009.32
2022-09-30T04:23:38.125Z,1009.33
2022-09-30T04:24:08.690Z,1009.34
2022-09-30T04:24:39.263Z,1009.34
2022-09-30T04:25:09.817Z,1009.35
2022-09-30T04:25:40.393Z,1009.35
2022-09-30T04:26:10.966Z,1009.35
2022-09-30T04:26:41.544Z,1009.35
2022-09-30T04:27:12.114Z,1009.35
2022-09-30T04:27:42.640Z,1009.36
2022-09-30T04:28:13.225Z,1009.36
2022-09-30T04:28:43.817Z,1009.37
2022-09-30T04:29:14.439Z,1009.38
2022-09-30T04:29:45.018Z,1009.38
2022-09-30T04:30:15.588Z,1009.39
2022-09-30T04:30:46.150Z,1009.40
2022-09-30T04:31:16.854Z,1009.40
2022-09-30T04:31:47.436Z,1009.41
2022-09-30T04:32:18.055Z,1009.41
2022-09-30T04:32:48.629Z,1009.41
2022-09-30T04:33:19.198Z,1009.41
2022-09-30T04:33:49.765Z,1009.41
2022-09-30T04:34:20.546Z,1009.41
2022-09-30T04:34:51.210Z,1009.40
2022-09-30T04:35:21.763Z,1009.40
2022-09-30T04:35:52.345Z,1009.40
2022-09-30T04:36:22.874Z,1009.39
2022-09-30T04:36:53.469Z,1009.39
2022-09-30T04:37:24.286Z,1009.39
2022-09-30T04:37:54.819Z,1009.38
2022-09-30T04:38:25.424Z,1009.37
2022-09-30T04:38:55.974Z,1009.36
2022-09-30T04:39:26.559Z,1009.35
2022-09-30T04:39:57.130Z,1009.34
2022-09-30T04:40:27.711Z,1009.33
2022-09-30T04:40:58.265Z,1009.33
2022-09-30T04:41:28.839Z,1009.32
2022-09-30T04:41:59.442Z,1009.32
2022-09-30T04:42:30.014Z,1009.32
2022-09-30T04:43:00.589Z,1009.32
2022-09-30T04:43:31.155Z,1009.33
2022-09-30T04:44:02.440Z,1009.34
2022-09-30T04:44:32.489Z,1009.35
2022-09-30T04:45:03.073Z,1009.35
2022-09-30T04:45:33.740Z,1009.36
2022-09-30T04:46:04.390Z,1009.37
2022-09-30T04:46:34.971Z,1009.37
2022-09-30T04:47:05.498Z,1009.39
2022-09-30T04:47:36.454Z,1009.40
2022-09-30T04:48:07.044Z,1009.40
2022-09-30T04:48:37.631Z,1009.41
2022-09-30T04:49:09.520Z,1009.42
2022-09-30T04:49:39.124Z,1009.43
2022-09-30T04:50:09.709Z,1009.44
2022-09-30T04:50:40.246Z,1009.44
2022-09-30T04:51:10.828Z,1009.45
2022-09-30T04:51:41.364Z,1009.45
2022-09-30T04:52:11.911Z,1009.46
2022-09-30T04:52:42.554Z,1009.47
2022-09-30T04:53:13.086Z,1009.47
2022-09-30T04:53:43.574Z,1009.47
2022-09-30T04:54:14.575Z,1009.47
2022-09-30T04:54:45.594Z,1009.48
2022-09-30T04:55:16.605Z,1009.48
2022-09-30T04:55:47.175Z,1009.48
2022-09-30T04:56:17.734Z,1009.49
2022-09-30T04:56:48.295Z,1009.48
2022-09-30T04:57:18.820Z,1009.48
2022-09-30T04:57:49.845Z,1009.48
2022-09-30T04:58:20.844Z,1009.48
2022-09-30T04:58:51.363Z,1009.49
2022-09-30T04:59:22.011Z,1009.49
2022-09-30T04:59:52.548Z,1009.50
2022-09-30T05:00:23.108Z,1009.51
2022-09-30T05:00:53.752Z,1009.52
2022-09-30T05:01:24.518Z,1009.53
2022-09-30T05:01:55.192Z,1009.54
2022-09-30T05:02:25.814Z,1009.55
2022-09-30T05:02:56.517Z,1009.55
2022-09-30T05:03:27.018Z,1009.57
2022-09-30T05:03:58.016Z,1009.58
2022-09-30T05:04:29.049Z,1009.59
2022-09-30T05:04:59.595Z,1009.60
2022-09-30T05:05:30.989Z,1009.60
2022-09-30T05:06:01.509Z,1009.61
2022-09-30T05:06:32.039Z,1009.61
2022-09-30T05:07:03.064Z,1009.62
2022-09-30T05:07:34.101Z,1009.62
2022-09-30T05:08:05.140Z,1009.62
2022-09-30T05:08:35.664Z,1009.61
2022-09-30T05:09:06.274Z,1009.61
2022-09-30T05:09:36.852Z,1009.60
2022-09-30T05:10:07.370Z,1009.59
2022-09-30T05:10:38.400Z,1009.59
2022-09-30T05:11:09.403Z,1009.58
2022-09-30T05:11:39.940Z,1009.58
2022-09-30T05:12:10.451Z,1009.59
2022-09-30T05:12:41.510Z,1009.60
2022-09-30T05:13:12.019Z,1009.61
2022-09-30T05:13:42.548Z,1009.62
2022-09-30T05:14:13.065Z,1009.64
2022-09-30T05:14:44.058Z,1009.66
2022-09-30T05:15:15.132Z,1009.68
2022-09-30T05:15:45.659Z,1009.70
2022-09-30T05:16:16.263Z,1009.71
2022-09-30T05:16:46.776Z,1009.72
2022-09-30T05:17:17.399Z,1009.73
2022-09-30T05:17:47.914Z,1009.73
2022-09-30T05:18:18.412Z,1009.73
2022-09-30T05:18:49.435Z,1009.73
2022-09-30T05:19:20.509Z,1009.73
2022-09-30T05:19:51.040Z,1009.73
2022-09-30T05:20:21.688Z,1009.73
2022-09-30T05:20:52.182Z,1009.74
2022-09-30T05:21:22.722Z,1009.75
2022-09-30T05:21:53.225Z,1009.76
2022-09-30T05:22:23.747Z,1009.78
2022-09-30T05:22:54.294Z,1009.79
2022-09-30T05:23:25.313Z,1009.81
2022-09-30T05:23:55.849Z,1009.83
2022-09-30T05:24:26.884Z,1009.85
2022-09-30T05:24:57.914Z,1009.86
2022-09-30T05:25:28.939Z,1009.88
2022-09-30T05:25:59.950Z,1009.89
2022-09-30T05:26:30.950Z,1009.91
2022-09-30T05:27:01.471Z,1009.92
2022-09-30T05:27:32.516Z,1009.92
2022-09-30T05:28:03.035Z,1009.93
2022-09-30T05:28:33.572Z,1009.93
2022-09-30T05:29:04.099Z,1009.93
2022-09-30T05:29:34.623Z,1009.94
2022-09-30T05:30:05.154Z,1009.95
2022-09-30T05:30:35.674Z,1009.96
2022-09-30T05:31:06.366Z,1009.97
2022-09-30T05:31:36.983Z,1009.98
2022-09-30T05:32:07.504Z,1009.99
2022-09-30T05:32:38.585Z,1010.01
2022-09-30T05:33:09.068Z,1010.02
2022-09-30T05:33:40.094Z,1010.02
2022-09-30T05:34:10.608Z,1010.02
2022-09-30T05:34:41.643Z,1010.03
2022-09-30T05:35:12.685Z,1010.03
2022-09-30T05:35:43.216Z,1010.03
2022-09-30T05:36:14.248Z,1010.03
2022-09-30T05:36:44.765Z,1010.02
2022-09-30T05:37:15.289Z,1010.01
2022-09-30T05:37:46.343Z,1010.01
2022-09-30T05:38:16.875Z,1010.00
2022-09-30T05:38:47.421Z,1010.00
2022-09-30T05:39:18.003Z,1009.99
2022-09-30T05:39:48.492Z,1009.98
2022-09-30T05:40:19.525Z,1009.98
2022-09-30T05:40:50.556Z,1009.97
2022-09-30T05:41:21.594Z,1009.97
2022-09-30T05:41:52.138Z,1009.97
2022-09-30T05:42:22.663Z,1009.98
2022-09-30T05:42:53.213Z,1009.98
2022-09-30T05:43:23.736Z,1009.99
2022-09-30T05:43:54.307Z,1010.01
2022-09-30T05:44:24.861Z,1010.02
2022-09-30T05:44:55.853Z,1010.04
2022-09-30T05:45:26.884Z,1010.05
2022-09-30T05:45:57.403Z,1010.06
2022-09-30T05:46:28.486Z,1010.08
2022-09-30T05:46:59.075Z,1010.09
2022-09-30T05:47:29.591Z,1010.10
2022-09-30T05:48:00.151Z,1010.10
2022-09-30T05:48:31.151Z,1010.11
2022-09-30T05:49:02.202Z,1010.11
2022-09-30T05:49:32.728Z,1010.11
2022-09-30T05:50:03.736Z,1010.11
2022-09-30T05:50:34.259Z,1010.11
2022-09-30T05:51:05.436Z,1010.11
2022-09-30T05:51:36.118Z,1010.11
2022-09-30T05:52:06.654Z,1010.12
2022-09-30T05:52:37.667Z,1010.12
2022-09-30T05:53:08.693Z,1010.13
2022-09-30T05:53:39.212Z,1010.14
2022-09-30T05:54:10.245Z,1010.14
2022-09-30T05:54:40.760Z,1010.15
2022-09-30T05:55:11.767Z,1010.16
2022-09-30T05:55:42.798Z,1010.17
2022-09-30T05:56:13.337Z,1010.18
2022-09-30T05:56:43.857Z,1010.19
2022-09-30T05:57:14.371Z,1010.19
2022-09-30T05:57:44.899Z,1010.20
2022-09-30T05:58:15.415Z,1010.21
2022-09-30T05:58:46.425Z,1010.22
2022-09-30T05:59:17.461Z,1010.23
2022-09-30T05:59:47.978Z,1010.23
2022-09-30T06:00:19.011Z,1010.23
2022-09-30T06:00:50.044Z,1010.24
2022-09-30T06:01:21.085Z,1010.24
2022-09-30T06:01:51.907Z,1010.23
2022-09-30T06:02:22.533Z,1010.23
2022-09-30T06:02:53.248Z,1010.23
2022-09-30T06:03:23.786Z,1010.23
2022-09-30T06:03:54.794Z,1010.23
2022-09-30T06:04:25.316Z,1010.23
2022-09-30T06:04:56.325Z,1010.24
2022-09-30T06:05:27.346Z,1010.25
2022-09-30T06:05:58.361Z,1010.26
2022-09-30T06:06:29.404Z,1010.27
2022-09-30T06:06:59.950Z,1010.28
2022-09-30T06:07:31.002Z,1010.30
2022-09-30T06:08:01.542Z,1010.32
2022-09-30T06:08:32.069Z,1010.33
2022-09-30T06:09:02.670Z,1010.34
2022-09-30T06:09:33.295Z,1010.35
2022-09-30T06:10:03.806Z,1010.36